Backyard Camera more information Backyard Camera


Rain radar more information rain snow radar


Visit our other sites:

Saratoga Weather Website

M82A1 Firearms Board

About This Template


Local fire risc:
CBI



There are no active watches, warnings or advisories

Nearby METAR Reports

   
KTHV - York, PA
Distance from station: WSW 12 mi
Updated: Jan 23 2022 5:53 am
  
  
   Wind: WSW 5.8 mph
Wind: WSW 5.8 mph
Temperature: 26.6°F
Wind Chill: 19.4°F
Dew Point: 10.4°F
Humidity: 50%
Barometer: 30 inHg
Visibility: 10 mi
KTHV 231053Z AUTO 25005KT 10SM M03/M12 A3000 RMK AO2 SLP168 T10331117 $
KMDT - Middletown, PA
Distance from station: NNW 18 mi
Updated: Jan 23 2022 5:56 am
Overcast  
Overcast  
   Wind: Calm
Wind: Calm
Temperature: 19.4°F
Dew Point: 12.2°F
Humidity: 73%
Barometer: 30.01 inHg
Clouds: Overcast
Visibility: 10 mi
Cloud details: Overcast 4572 m
KMDT 231056Z 00000KT 10SM OVC150 M07/M11 A3001 RMK AO2 SLP167 T10721111 $
KCXY - Harrisburg, PA
Distance from station: NNW 21 mi
Updated: Jan 23 2022 5:56 am
Clear  
Clear  
   Wind: Calm
Wind: Calm
Temperature: 21.2°F
Dew Point: 10.4°F
Humidity: 63%
Barometer: 30.01 inHg
Clouds: Clear
Visibility: 10 mi
Cloud details: Clear
KCXY 231056Z AUTO 00000KT 10SM CLR M06/M12 A3001 RMK AO2 SLP167 T10611122
KLNS - Lancaster, PA
Distance from station: ENE 22 mi
Updated: Jan 23 2022 5:53 am
Clear  
Clear  
   Wind: Calm
Wind: Calm
Temperature: 17.6°F
Dew Point: 10.4°F
Humidity: 73%
Barometer: 30.01 inHg
Clouds: Clear
Visibility: 10 mi
Cloud details: Clear
KLNS 231053Z 00000KT 10SM CLR M08/M12 A3001 RMK AO2 SLP166 T10781122
KAPG - Aberdeen, MD
Distance from station: SE 43 mi
Updated: Jan 23 2022 5:58 am
Clear  
Clear  
   Wind: WSW 3.5 mph
Wind: WSW 3.5 mph
Temperature: 17.6°F
Wind Chill: 12.2°F
Dew Point: 12.2°F
Humidity: 79%
Barometer: 30.05 inHg
Clouds: Clear
Visibility: 10 mi
Cloud details: Clear
KAPG 231058Z AUTO 25003KT 10SM CLR M08/M11 A3005 RMK AO2 SLP180 T10761115 PNO $
KMTN - Baltimore/Martin, MD
Distance from station: SSE 46 mi
Updated: Jan 23 2022 5:54 am
Clear  
Clear  
   Wind: Calm
Wind: Calm
Temperature: 21.2°F
Dew Point: 14°F
Humidity: 74%
Barometer: 30.05 inHg
Clouds: Clear
Visibility: 10 mi
Cloud details: Clear
KMTN 231054Z 00000KT 10SM CLR M06/M10 A3005 RMK FIRST
KDMH - Baltimore/Downtown, MD
Distance from station: S 46 mi
Updated: Jun 4 2020 7:54 am
NOT Current
  
  
   Wind: Calm
Wind: Calm
Barometer: 29.88 inHg
KDMH 041154Z AUTO A2988 RMK AO1 SLP120 6//// 7//// 53020 PNO $
KFDK - Frederick, MD
Distance from station: SW 53 mi
Updated: Jan 23 2022 6:15 am
Partly Cloudy  
Partly Cloudy  
   Wind: Calm
Wind: Calm
Temperature: 19.4°F
Dew Point: 14°F
Humidity: 79%
Barometer: 30.03 inHg
Clouds: Partly Cloudy
Visibility: 10 mi
Cloud details: Partly Cloudy 1311 m
KFDK 231115Z AUTO 00000KT 10SM SCT043 M07/M10 A3003 RMK AO2
KBWI - Baltimore/Washington, MD
Distance from station: S 54 mi
Updated: Jan 23 2022 5:54 am
Mostly Cloudy  
Mostly Cloudy  
   Wind: Calm
Wind: Calm
Temperature: 19.4°F
Dew Point: 10.4°F
Humidity: 68%
Barometer: 30.03 inHg
Clouds: Mostly Cloudy
Visibility: 10 mi
Cloud details: Few Clouds 2134 m,
Mostly Cloudy 7620 m
KBWI 231054Z 00000KT 10SM FEW070 BKN250 M07/M12 A3003 RMK AO2 SLP169 T10721122
KHGR - Hagerstown, MD
Distance from station: WSW 60 mi
Updated: Jan 23 2022 5:53 am
Clear  
Clear  
   Wind: SW 3.5 mph
Wind: SW 3.5 mph
Temperature: 24.8°F
Wind Chill: 19.4°F
Dew Point: 10.4°F
Humidity: 54%
Barometer: 30 inHg
Clouds: Clear
Visibility: 10 mi
Cloud details: Clear
KHGR 231053Z AUTO 23003KT 10SM CLR M04/M12 A3000 RMK AO2 SLP178 T10441122 $
KILG - Wilmington, DE
Distance from station: ESE 60 mi
Updated: Jan 23 2022 5:51 am
Clear  
Clear  
   Wind: SSW 3.5 mph
Wind: SSW 3.5 mph
Temperature: 19.4°F
Wind Chill: 14°F
Dew Point: 12.2°F
Humidity: 73%
Barometer: 30.03 inHg
Clouds: Clear
Visibility: 10 mi
Cloud details: Clear
KILG 231051Z AUTO 20003KT 10SM CLR M07/M11 A3003 RMK AO2 SLP169 T10671106 $
KFME - Ft. Meade, MD
Distance from station: S 60 mi
Updated: Jan 23 2022 6:15 am
Clear  
Clear  
   Wind: Calm
Wind: Calm
Temperature: 15.8°F
Dew Point: 15.8°F
Humidity: 100%
Barometer: 30.06 inHg
Clouds: Clear
Visibility: 10 mi
Cloud details: Clear
KFME 231115Z AUTO 00000KT 10SM CLR M09/M09 A3006 RMK AO1
KAGC - Pittsburgh/Allegheny, PA, USA
Distance from station: WNW 222 mi
Updated: Jan 23 2022 5:53 am
Mostly Cloudy  
Mostly Cloudy  
   Wind: South 11.5 mph
Wind: South 11.5 mph
Temperature: 21.2°F
Wind Chill: 8.6°F
Dew Point: 12.2°F
Humidity: 68%
Barometer: 29.93 inHg
Clouds: Mostly Cloudy
Visibility: 10 mi
Cloud details: Few Clouds 2438 m,
Mostly Cloudy 2896 m
KAGC 231053Z 19010KT 10SM FEW080 BKN095 M06/M11 A2993 RMK AO2 SLP155 T10561111
KUNV - State College, Pennsylvania, USA
Distance from station: NW 118 mi
Updated: Jan 23 2022 5:53 am
Mostly Cloudy  
Mostly Cloudy  
   Wind: SSW 3.5 mph
Wind: SSW 3.5 mph
Temperature: 21.2°F
Wind Chill: 15.8°F
Dew Point: 12.2°F
Humidity: 68%
Barometer: 29.92 inHg
Clouds: Mostly Cloudy
Visibility: 10 mi
Cloud details: Mostly Cloudy 1097 m
KUNV 231053Z 21003KT 10SM BKN036 M06/M11 A2992
 

Script developed by  Saratoga-weather.org Adapted for the template by  Weerstation Leuven

You find our weather info also at:

WeatherCloud

Weather Underground

Northeastern Weather Network

AWEKAS

Citizen Weather Observer Program (CWOP)

Equipment we use:

Weather-station
Davis VP2

Weather-program
Weather Display

Weather-server
Intel NUC

Provider
GoDaddy

Davis VP2

Weather Display

Intel NUC

GoDaddy